Marks Tey, United Kingdom
Current Conditions -  °F | °C
As of 2:50 PM on Thursday 18 Dec 2014 (Local Time) from EGUW Reporting Station
Overcast Overcast  
Wind Chill: 13°   Ceiling: 1500
Heat Index: 13°   Visibility: 6mi
Dew Point: 10°   Wind: 23mph
Humidity: 82%   Direction: 240°WSW
Pressure: 29.71"   Gusts: NA
Location:  51.88°N, 0.76°E
Report Text: EGUW 181450Z 24020KT 9999 OVC015 13/10 Q1006 WHT NOSIG
Loading
Personal Weather Stations






























Interactive Weather Map New forecast layout! Learn more

10-Day Weather Forecast

Advertisements
Track Severe Weather on mobile